WetterOnline ( https://www.wetteronline.de )

Wetter aktuell Kleinmachnow

Aktuelles Wetter: Berlin-Dahlem (70m)

6-stündlich | Neueste Meldungen
Ortszeit Temperatur Wetter
Sa, 22.01. 1:00 3.4° C Sprühregen
Fr, 21.01. 19:00 1.0° C wolkig
Fr, 21.01. 13:00 1.4° C fast wolkenlos
Fr, 21.01. 7:00 -2.8° C wolkenlos
Fr, 21.01. 1:00 -0.9° C leicht bewölkt
Do, 20.01. 19:00 0.3° C bewölkt
Do, 20.01. 13:00 3.0° C leicht bewölkt
Do, 20.01. 7:00 1.6° C wolkig
Ortszeit Temperatur Wetter
Sa, 22.01. 6:00 2.5° C wolkig
Sa, 22.01. 5:00 3.3° C leicht bewölkt
Sa, 22.01. 4:00 3.7° C bewölkt
Sa, 22.01. 3:00 3.9° C Sprühregen
Sa, 22.01. 2:00 3.8° C Sprühregen
Sa, 22.01. 1:00 3.4° C Sprühregen
Ortszeit Relative Feuchte Sichtweite
Sa, 22.01. 1:00 99% 5.0 km
Fr, 21.01. 19:00 62% 50 km
Fr, 21.01. 13:00 63% 50 km
Fr, 21.01. 7:00 71% 50 km
Fr, 21.01. 1:00 71% 40 km
Do, 20.01. 19:00 70% 30 km
Do, 20.01. 13:00 56% 50 km
Do, 20.01. 7:00 76% 50 km
Ortszeit Relative Feuchte Sichtweite
Sa, 22.01. 6:00 96% 20 km
Sa, 22.01. 5:00 96% 18 km
Sa, 22.01. 4:00 97% 15 km
Sa, 22.01. 3:00 98% 12 km
Sa, 22.01. 2:00 99% 7 km
Sa, 22.01. 1:00 99% 5.0 km
Ortszeit Niederschlagsmenge Niederschlagsart
Sa, 22.01. 1:00 2 l/m2 in 6 Std. Schnee, Regen
Fr, 21.01. 19:00 0.0 l/m2 in 12 Std. -
Fr, 21.01. 13:00 0.0 l/m2 in 6 Std. -
Fr, 21.01. 7:00 0.8 l/m2 in 12 Std. -
Fr, 21.01. 1:00 0.8 l/m2 in 6 Std. Schnee
Do, 20.01. 19:00 0.1 l/m2 in 12 Std. Schneeschauer
Do, 20.01. 13:00 0.1 l/m2 in 6 Std. Schnee
Do, 20.01. 7:00 1 l/m2 in 12 Std. Schneeschauer
Ortszeit Niederschlagsmenge Niederschlagsart
Sa, 22.01. 6:00 keine Meldung -
Sa, 22.01. 5:00 keine Meldung -
Sa, 22.01. 4:00 keine Meldung -
Sa, 22.01. 3:00 keine Meldung -
Sa, 22.01. 2:00 keine Meldung -
Sa, 22.01. 1:00 keine Meldung -
Ortszeit Stärke Spitze Richtung
km/h Bft. km/h Grad Sektor
Sa, 22.01. 1:00 22 4 - 300° NW
Fr, 21.01. 19:00 18 3 47 270° W
Fr, 21.01. 13:00 22 4 - 290° W
Fr, 21.01. 7:00 18 3 47 270° W
Fr, 21.01. 1:00 25 4 47 290° W
Do, 20.01. 19:00 22 4 54 290° W
Do, 20.01. 13:00 29 5 72 300° NW
Do, 20.01. 7:00 29 5 83 290° W
Ortszeit Stärke Spitze Richtung
km/h Bft. km/h Grad Sektor
Sa, 22.01. 6:00 14 3 - 320° NW
Sa, 22.01. 5:00 18 3 - 320° NW
Sa, 22.01. 4:00 22 4 - 330° NW
Sa, 22.01. 3:00 18 3 - 340° N
Sa, 22.01. 2:00 18 3 - 310° NW
Sa, 22.01. 1:00 22 4 - 300° NW
Ortszeit Untergrenze Bedeckung Gattung
total tief tief mittel hoch
Sa, 22.01. 1:00 150 m 8/8 7/8 St - -
Fr, 21.01. 19:00 1500 m 7/8 1/8 Sc As -
Fr, 21.01. 13:00 7500 m 1/8 0/8 - - Ci
Fr, 21.01. 7:00 - 0/8 0/8 - - -
Fr, 21.01. 1:00 1380 m 2/8 2/8 Sc - -
Do, 20.01. 19:00 1200 m 7/8 7/8 Sc - -
Do, 20.01. 13:00 1080 m 3/8 3/8 Cu Ac -
Do, 20.01. 7:00 930 m 6/8 6/8 Sc - -
Ortszeit Bedeckungsgrad in Achtel und Wolkenuntergrenze
Sa, 22.01. 6:00 5(240m)
Sa, 22.01. 5:00 3(180m)
Sa, 22.01. 4:00 7(180m)
Sa, 22.01. 3:00 7(180m)
Sa, 22.01. 2:00 7(180m)
Sa, 22.01. 1:00 7(150m)
Ortszeit Luftdruck NN (hPa) Tendenz (hPa in 3 Std.)
Sa, 22.01. 1:00 1021 - 1,2
Fr, 21.01. 19:00 1024 - 0,7
Fr, 21.01. 13:00 1025 + 0,1
Fr, 21.01. 7:00 1024 + 0,6
Fr, 21.01. 1:00 1023 + 1,9
Do, 20.01. 19:00 1018 + 1,9
Do, 20.01. 13:00 1015 + 0,6
Do, 20.01. 7:00 1012 + 0,5
Ortszeit Luftdruck NN (hPa) Tendenz (hPa in 3 Std.)
Sa, 22.01. 6:00 1024 + 2,0
Sa, 22.01. 5:00 1023 + 1,8
Sa, 22.01. 4:00 1023 + 1,5
Sa, 22.01. 3:00 1022 + 0,7
Sa, 22.01. 2:00 1021 - 0,6
Sa, 22.01. 1:00 1021 - 1,2
Ortszeit Schneehöhe (cm)
Sa, 22.01. 1:00 0
Fr, 21.01. 19:00 3
Fr, 21.01. 13:00 3
Fr, 21.01. 7:00 4
Fr, 21.01. 1:00 4
Do, 20.01. 19:00 0
Do, 20.01. 13:00 0
Do, 20.01. 7:00 1
Ortszeit Schneehöhe (cm)
Sa, 22.01. 6:00 -
Sa, 22.01. 5:00 -
Sa, 22.01. 4:00 -
Sa, 22.01. 3:00 -
Sa, 22.01. 2:00 -
Sa, 22.01. 1:00 0
Link zu dieser Seite / Seite empfehlen

Das Wetter in ...